Time;durP1;ratioP1;P1;durP2;ratioP2;P2;SDS_P1;SDS_P2;PMS_P1;PMS_P2;Temp;Humidity;BMP_temperature;BMP_pressure;BME280_temperature;BME280_humidity;BME280_pressure;Samples;Min_cycle;Max_cycle;Signal;HPM_P1;HPM_P2
2022/07/17 00:01:25;;;;;;;0.50;0.50;;;13.20;99.90;;;;;;5053272;28;20424;-71
2022/07/17 00:04:14;;;;;;;0.40;0.40;;;13.20;99.90;;;;;;5053191;28;20476;-70
2022/07/17 00:07:03;;;;;;;0.50;0.50;;;13.10;99.90;;;;;;5052339;28;20786;-71
2022/07/17 00:09:51;;;;;;;0.50;0.50;;;13.10;99.90;;;;;;5052851;28;20430;-73
2022/07/17 00:12:39;;;;;;;0.50;0.50;;;13.20;99.90;;;;;;5052591;28;20490;-72
2022/07/17 00:15:27;;;;;;;0.50;0.50;;;13.10;99.90;;;;;;5053016;28;20454;-73
2022/07/17 00:18:17;;;;;;;0.50;0.50;;;13.10;99.90;;;;;;5053220;28;20951;-73
2022/07/17 00:21:05;;;;;;;0.50;0.50;;;13.00;99.90;;;;;;5053518;28;20424;-71
2022/07/17 00:23:54;;;;;;;0.50;0.50;;;13.00;99.90;;;;;;5052248;28;20482;-72
2022/07/17 00:26:42;;;;;;;0.50;0.50;;;12.90;99.90;;;;;;5053180;28;20792;-70
2022/07/17 00:29:30;;;;;;;0.50;0.50;;;12.90;99.90;;;;;;5052232;28;20432;-72
2022/07/17 00:32:18;;;;;;;0.50;0.50;;;12.90;99.90;;;;;;5052098;28;20428;-71
2022/07/17 00:35:09;;;;;;;0.40;0.40;;;12.90;99.90;;;;;;5053295;28;20459;-72
2022/07/17 00:37:57;;;;;;;0.50;0.50;;;12.80;99.90;;;;;;5052463;28;20439;-71
2022/07/17 00:40:46;;;;;;;0.50;0.50;;;12.80;99.90;;;;;;5052051;28;20455;-71
2022/07/17 00:43:34;;;;;;;0.50;0.50;;;12.70;99.90;;;;;;5051746;28;20522;-72
2022/07/17 00:46:23;;;;;;;0.40;0.40;;;12.70;99.90;;;;;;5052244;28;20430;-72
2022/07/17 00:49:11;;;;;;;0.50;0.50;;;12.60;99.90;;;;;;5052060;28;20459;-72
2022/07/17 00:52:00;;;;;;;0.50;0.50;;;12.60;99.90;;;;;;5052677;28;20443;-71
2022/07/17 00:54:49;;;;;;;0.50;0.50;;;12.50;99.90;;;;;;5052106;28;20475;-72
2022/07/17 00:58:01;;;;;;;0.50;0.50;;;12.50;99.90;;;;;;5051904;28;20514;-71
2022/07/17 01:00:50;;;;;;;0.50;0.50;;;12.50;99.90;;;;;;5053796;28;20420;-71
2022/07/17 01:03:38;;;;;;;0.50;0.50;;;12.40;99.90;;;;;;5055704;28;20440;-70
2022/07/17 01:06:27;;;;;;;0.40;0.40;;;12.30;99.90;;;;;;5056242;28;20428;-71
2022/07/17 01:09:16;;;;;;;0.50;0.50;;;12.30;99.90;;;;;;5056010;28;20427;-71
2022/07/17 01:12:09;;;;;;;0.40;0.40;;;12.30;99.90;;;;;;5056560;28;20822;-73
2022/07/17 01:14:58;;;;;;;0.50;0.50;;;12.30;99.90;;;;;;5056614;28;20463;-72
2022/07/17 01:17:47;;;;;;;0.40;0.40;;;12.20;99.90;;;;;;5056552;28;20425;-71
2022/07/17 01:20:36;;;;;;;0.50;0.50;;;12.20;99.90;;;;;;5054336;28;20452;-71
2022/07/17 01:23:26;;;;;;;0.50;0.50;;;12.20;99.90;;;;;;5055485;28;20474;-72
2022/07/17 01:26:14;;;;;;;0.50;0.50;;;12.10;99.90;;;;;;5055465;28;20432;-71
2022/07/17 01:29:02;;;;;;;0.50;0.50;;;12.10;99.90;;;;;;5056266;28;20424;-72
2022/07/17 01:31:51;;;;;;;0.50;0.50;;;12.10;99.90;;;;;;5055760;28;20421;-72
2022/07/17 01:34:39;;;;;;;0.47;0.47;;;12.00;99.90;;;;;;5055465;28;20497;-71
2022/07/17 01:37:27;;;;;;;0.50;0.50;;;12.00;99.90;;;;;;5061538;28;20451;-71
2022/07/17 01:40:18;;;;;;;0.50;0.50;;;11.90;99.90;;;;;;5057278;28;20474;-72
2022/07/17 01:43:06;;;;;;;0.50;0.50;;;11.90;99.90;;;;;;5055549;28;20448;-71
2022/07/17 01:45:54;;;;;;;0.50;0.50;;;11.80;99.90;;;;;;5055677;28;20435;-72
2022/07/17 01:48:42;;;;;;;0.50;0.50;;;11.80;99.90;;;;;;5054664;28;20925;-72
2022/07/17 01:51:31;;;;;;;0.50;0.50;;;11.70;99.90;;;;;;5055116;28;20420;-72
2022/07/17 01:54:19;;;;;;;0.50;0.50;;;11.70;99.90;;;;;;5055078;28;20467;-71
2022/07/17 01:57:09;;;;;;;0.70;0.70;;;11.70;99.90;;;;;;5051454;28;20436;-74
2022/07/17 01:59:57;;;;;;;0.43;0.43;;;11.60;99.90;;;;;;5060590;28;20432;-71
2022/07/17 02:02:45;;;;;;;0.50;0.50;;;11.60;99.90;;;;;;5055100;28;20459;-70
2022/07/17 02:05:34;;;;;;;0.47;0.47;;;11.60;99.90;;;;;;5054788;28;20429;-72
2022/07/17 02:08:22;;;;;;;0.47;0.47;;;11.60;99.90;;;;;;5055177;28;20427;-72
2022/07/17 02:11:10;;;;;;;0.50;0.50;;;11.60;99.90;;;;;;5054314;28;20426;-71
2022/07/17 02:14:00;;;;;;;0.50;0.50;;;11.60;99.90;;;;;;5055069;28;20460;-71
2022/07/17 02:16:48;;;;;;;0.50;0.50;;;11.50;99.90;;;;;;5055362;28;20428;-72
2022/07/17 02:19:37;;;;;;;0.50;0.50;;;11.50;99.90;;;;;;5054549;28;20428;-72
2022/07/17 02:22:25;;;;;;;0.50;0.50;;;11.50;99.90;;;;;;5054570;28;20432;-72
2022/07/17 02:25:14;;;;;;;0.50;0.50;;;11.50;99.90;;;;;;5054940;28;20427;-71
2022/07/17 02:28:02;;;;;;;0.50;0.50;;;11.40;99.90;;;;;;5055007;28;20807;-71
2022/07/17 02:30:51;;;;;;;0.50;0.50;;;11.40;99.90;;;;;;5054750;28;20440;-72
2022/07/17 02:33:40;;;;;;;0.50;0.50;;;11.40;99.90;;;;;;5049767;28;20476;-72
2022/07/17 02:36:28;;;;;;;0.50;0.50;;;11.30;99.90;;;;;;5056554;28;20435;-71
2022/07/17 02:39:16;;;;;;;0.50;0.50;;;11.30;99.90;;;;;;5055753;28;20432;-71
2022/07/17 02:42:04;;;;;;;0.50;0.50;;;11.20;99.90;;;;;;5054816;28;20432;-71
2022/07/17 02:44:53;;;;;;;0.50;0.50;;;11.20;99.90;;;;;;5056252;28;20431;-72
2022/07/17 02:47:43;;;;;;;0.50;0.50;;;11.20;99.90;;;;;;5055972;28;20420;-71
2022/07/17 02:50:31;;;;;;;0.50;0.50;;;11.10;99.90;;;;;;5055908;28;20856;-72
2022/07/17 02:53:19;;;;;;;0.50;0.50;;;11.00;99.90;;;;;;5054331;28;20456;-71
2022/07/17 02:56:08;;;;;;;0.50;0.50;;;11.00;99.90;;;;;;5054285;28;20428;-71
2022/07/17 02:58:56;;;;;;;0.50;0.50;;;11.00;99.90;;;;;;5034020;28;20428;-72
2022/07/17 03:01:44;;;;;;;0.50;0.50;;;10.90;99.90;;;;;;5033872;28;20796;-73
2022/07/17 03:04:34;;;;;;;0.50;0.50;;;10.90;99.90;;;;;;5034564;28;20445;-71
2022/07/17 03:07:22;;;;;;;0.47;0.47;;;10.90;99.90;;;;;;5034714;28;20803;-71
2022/07/17 03:10:10;;;;;;;0.50;0.50;;;10.90;99.90;;;;;;5032841;28;20800;-71
2022/07/17 03:12:58;;;;;;;0.50;0.50;;;10.90;99.90;;;;;;5034236;28;20524;-74
2022/07/17 03:15:46;;;;;;;0.50;0.50;;;10.80;99.90;;;;;;5033167;28;20469;-73
2022/07/17 03:18:35;;;;;;;0.50;0.50;;;10.80;99.90;;;;;;5032760;28;20436;-74
2022/07/17 03:21:24;;;;;;;0.50;0.50;;;10.80;99.90;;;;;;5039216;28;20426;-72
2022/07/17 03:24:13;;;;;;;0.50;0.50;;;10.70;99.90;;;;;;5042469;28;20453;-71
2022/07/17 03:27:01;;;;;;;0.50;0.50;;;10.70;99.90;;;;;;5048242;28;20456;-72
2022/07/17 03:29:49;;;;;;;0.40;0.40;;;10.70;99.90;;;;;;5043213;28;20425;-72
2022/07/17 03:32:38;;;;;;;0.50;0.50;;;10.70;99.90;;;;;;5046446;28;20449;-71
2022/07/17 03:35:26;;;;;;;0.50;0.50;;;10.70;99.90;;;;;;5045451;28;20473;-72
2022/07/17 03:38:15;;;;;;;0.50;0.50;;;10.70;99.90;;;;;;5043792;28;20436;-71
2022/07/17 03:41:03;;;;;;;0.50;0.50;;;10.70;99.90;;;;;;5044681;28;20447;-72
2022/07/17 03:43:52;;;;;;;0.50;0.50;;;10.80;99.90;;;;;;5045128;28;20440;-71
2022/07/17 03:46:40;;;;;;;0.50;0.50;;;10.80;99.90;;;;;;5041136;28;20773;-72
2022/07/17 03:49:28;;;;;;;1.00;1.00;;;10.90;99.90;;;;;;5038985;28;20437;-71
2022/07/17 03:52:17;;;;;;;0.50;0.50;;;10.90;99.90;;;;;;5040113;28;20429;-71
2022/07/17 03:55:07;;;;;;;0.40;0.40;;;11.00;99.90;;;;;;5036591;28;20551;-71
2022/07/17 03:57:56;;;;;;;0.50;0.50;;;11.00;99.90;;;;;;5048277;28;20805;-71
2022/07/17 04:00:44;;;;;;;0.40;0.40;;;11.10;99.90;;;;;;5051483;28;20435;-71
2022/07/17 04:03:32;;;;;;;0.50;0.50;;;11.10;99.90;;;;;;5052801;28;20898;-72
2022/07/17 04:06:20;;;;;;;0.57;0.57;;;11.10;99.90;;;;;;5053078;28;20429;-73
2022/07/17 04:09:08;;;;;;;0.50;0.50;;;11.20;99.90;;;;;;5050866;28;20435;-71
2022/07/17 04:11:58;;;;;;;0.50;0.50;;;11.20;99.90;;;;;;5052484;28;20423;-71
2022/07/17 04:14:46;;;;;;;0.50;0.50;;;11.30;99.90;;;;;;5052558;28;20486;-72
2022/07/17 04:17:34;;;;;;;0.50;0.50;;;11.30;99.90;;;;;;5053210;28;20963;-71
2022/07/17 04:20:23;;;;;;;0.50;0.50;;;11.30;99.90;;;;;;5052282;28;20420;-72
2022/07/17 04:23:12;;;;;;;0.50;0.50;;;11.40;99.90;;;;;;5056561;28;20543;-74
2022/07/17 04:26:01;;;;;;;0.70;0.70;;;11.40;99.90;;;;;;5063097;28;20447;-73
2022/07/17 04:28:58;;;;;;;0.50;0.50;;;11.40;99.90;;;;;;5063024;28;20420;-72
2022/07/17 04:31:47;;;;;;;0.50;0.50;;;11.50;99.90;;;;;;5060213;28;20428;-76
2022/07/17 04:34:36;;;;;;;0.50;0.50;;;11.50;99.90;;;;;;5061845;28;20524;-72
2022/07/17 04:37:24;;;;;;;0.50;0.50;;;11.50;99.90;;;;;;5064888;28;20435;-74
2022/07/17 04:40:13;;;;;;;0.50;0.50;;;11.60;99.90;;;;;;5066419;28;20435;-76
2022/07/17 04:43:01;;;;;;;0.50;0.50;;;11.60;99.90;;;;;;5062930;28;20450;-71
2022/07/17 04:45:50;;;;;;;0.50;0.50;;;11.70;99.90;;;;;;5066640;28;20435;-74
2022/07/17 04:48:39;;;;;;;0.50;0.50;;;11.80;99.90;;;;;;5064583;28;20428;-74
2022/07/17 04:51:27;;;;;;;0.50;0.50;;;11.80;99.90;;;;;;5063806;28;20424;-75
2022/07/17 04:54:15;;;;;;;0.50;0.50;;;11.80;99.90;;;;;;5064555;28;20462;-74
2022/07/17 04:57:04;;;;;;;0.50;0.50;;;11.90;99.90;;;;;;5066460;28;20431;-71
2022/07/17 04:59:52;;;;;;;0.50;0.50;;;11.90;99.90;;;;;;5064481;28;20428;-75
2022/07/17 05:02:41;;;;;;;0.50;0.50;;;12.00;99.90;;;;;;5064224;28;20444;-73
2022/07/17 05:05:30;;;;;;;0.70;0.70;;;12.10;99.90;;;;;;5064300;28;20416;-73
2022/07/17 05:08:19;;;;;;;0.50;0.50;;;12.10;99.90;;;;;;5064313;28;20442;-73
2022/07/17 05:11:07;;;;;;;0.50;0.50;;;12.20;99.90;;;;;;5064101;28;20436;-74
2022/07/17 05:13:55;;;;;;;0.60;0.60;;;12.30;99.90;;;;;;5064539;28;20448;-76
2022/07/17 05:16:44;;;;;;;0.50;0.50;;;12.30;99.90;;;;;;5064821;28;20486;-74
2022/07/17 05:19:35;;;;;;;4.33;0.93;;;12.40;99.90;;;;;;5063434;28;20436;-73
2022/07/17 05:22:23;;;;;;;0.67;0.50;;;12.50;99.90;;;;;;5062564;28;20416;-75
2022/07/17 05:25:11;;;;;;;0.50;0.50;;;12.60;99.90;;;;;;5063486;28;20417;-73
2022/07/17 05:27:59;;;;;;;0.50;0.50;;;12.70;99.90;;;;;;5063872;28;20443;-75
2022/07/17 05:30:47;;;;;;;0.50;0.50;;;12.80;99.90;;;;;;5061659;28;20439;-74
2022/07/17 05:33:35;;;;;;;0.50;0.50;;;13.00;99.90;;;;;;5065583;28;20455;-73
2022/07/17 05:36:25;;;;;;;0.50;0.50;;;13.10;99.90;;;;;;5067985;28;20464;-74
2022/07/17 05:39:13;;;;;;;0.50;0.50;;;13.20;99.90;;;;;;5064172;28;20424;-73
2022/07/17 05:42:01;;;;;;;0.50;0.50;;;13.30;99.90;;;;;;5062489;28;20947;-74
2022/07/17 05:44:50;;;;;;;0.70;0.50;;;13.40;99.90;;;;;;5063019;28;20424;-75
2022/07/17 05:47:38;;;;;;;4.00;1.97;;;13.50;99.90;;;;;;5064675;28;20416;-74
2022/07/17 05:50:27;;;;;;;0.50;0.50;;;13.60;99.90;;;;;;5062492;28;20435;-75
2022/07/17 05:53:16;;;;;;;0.40;0.40;;;13.80;99.90;;;;;;5063406;28;20975;-75
2022/07/17 05:56:05;;;;;;;0.50;0.50;;;14.00;99.90;;;;;;5062396;28;20460;-74
2022/07/17 05:58:53;;;;;;;0.57;0.57;;;14.10;99.90;;;;;;5060888;28;20433;-72
2022/07/17 06:01:42;;;;;;;0.50;0.50;;;14.40;99.90;;;;;;5063015;28;20443;-74
2022/07/17 06:04:30;;;;;;;0.40;0.40;;;14.60;99.90;;;;;;5065068;28;20447;-74
2022/07/17 06:07:19;;;;;;;0.50;0.50;;;14.80;99.90;;;;;;5065702;28;20482;-72
2022/07/17 06:10:10;;;;;;;0.80;0.80;;;15.00;99.90;;;;;;5064468;28;21014;-74
2022/07/17 06:12:58;;;;;;;0.50;0.50;;;15.20;99.90;;;;;;5061671;28;20447;-75
2022/07/17 06:15:46;;;;;;;0.50;0.50;;;15.30;99.90;;;;;;5062908;28;20756;-73
2022/07/17 06:18:34;;;;;;;0.50;0.50;;;15.40;99.90;;;;;;5062985;28;20435;-72
2022/07/17 06:21:23;;;;;;;0.50;0.50;;;15.50;99.90;;;;;;5063531;28;20204;-74
2022/07/17 06:24:11;;;;;;;0.50;0.50;;;15.70;99.90;;;;;;5058839;28;20468;-76
2022/07/17 06:27:00;;;;;;;0.40;0.40;;;15.80;99.90;;;;;;5063743;28;20208;-73
2022/07/17 06:29:49;;;;;;;0.73;0.63;;;15.80;99.90;;;;;;5059911;28;20620;-75
2022/07/17 06:32:44;;;;;;;0.40;0.40;;;15.90;99.90;;;;;;5060345;28;20228;-75
2022/07/17 06:35:33;;;;;;;0.50;0.50;;;16.00;99.90;;;;;;5063154;28;20201;-75
2022/07/17 06:38:22;;;;;;;0.53;0.50;;;16.10;99.90;;;;;;5062269;28;20552;-75
2022/07/17 06:41:10;;;;;;;0.40;0.40;;;16.10;99.90;;;;;;5056986;28;20293;-75
2022/07/17 06:44:00;;;;;;;0.40;0.40;;;16.10;99.90;;;;;;5060257;28;20217;-74
2022/07/17 06:46:48;;;;;;;0.40;0.40;;;16.10;99.90;;;;;;5064350;28;20545;-72
2022/07/17 06:49:37;;;;;;;0.50;0.50;;;16.20;99.90;;;;;;5063274;28;20225;-73
2022/07/17 06:52:25;;;;;;;0.50;0.50;;;16.10;99.90;;;;;;5062472;28;20206;-75
2022/07/17 06:55:18;;;;;;;0.60;0.60;;;16.10;99.90;;;;;;5061227;28;20201;-74
2022/07/17 06:58:06;;;;;;;1.27;1.07;;;16.10;99.90;;;;;;5042920;28;20202;-74
2022/07/17 07:00:55;;;;;;;0.50;0.50;;;16.10;99.90;;;;;;5043963;28;20209;-73
2022/07/17 07:03:44;;;;;;;0.73;0.53;;;16.10;99.90;;;;;;5036409;28;20253;-73
2022/07/17 07:06:32;;;;;;;0.93;0.93;;;16.10;99.90;;;;;;5038466;28;20198;-74
2022/07/17 07:09:20;;;;;;;0.50;0.50;;;16.20;99.90;;;;;;5039590;28;20206;-77
2022/07/17 07:12:08;;;;;;;0.50;0.50;;;16.10;99.90;;;;;;5036761;28;20206;-73
2022/07/17 07:14:57;;;;;;;0.45;0.45;;;16.40;99.90;;;;;;5036514;28;20675;-74
2022/07/17 07:17:47;;;;;;;0.50;0.50;;;16.40;99.90;;;;;;5036235;28;20225;-76
2022/07/17 07:20:35;;;;;;;0.50;0.50;;;16.50;99.90;;;;;;5036565;28;20681;-76
2022/07/17 07:23:24;;;;;;;0.50;0.50;;;16.60;99.90;;;;;;5036781;28;20237;-74
2022/07/17 07:26:12;;;;;;;0.40;0.40;;;16.80;99.90;;;;;;5035707;28;20202;-72
2022/07/17 07:29:00;;;;;;;0.40;0.40;;;17.00;99.90;;;;;;5037955;28;20229;-74
2022/07/17 07:31:49;;;;;;;0.50;0.50;;;17.20;99.90;;;;;;5034207;28;20212;-74
2022/07/17 07:34:38;;;;;;;0.50;0.50;;;17.40;99.90;;;;;;5033538;28;20198;-78
2022/07/17 07:37:27;;;;;;;0.50;0.50;;;17.70;99.90;;;;;;5054619;28;20221;-73
2022/07/17 07:40:15;;;;;;;0.90;0.68;;;17.70;99.90;;;;;;5058927;28;20338;-74
2022/07/17 07:43:03;;;;;;;0.40;0.40;;;17.60;99.90;;;;;;5055827;28;20701;-75
2022/07/17 07:45:52;;;;;;;0.60;0.50;;;17.70;99.90;;;;;;5053816;28;20701;-73
2022/07/17 07:48:40;;;;;;;0.50;0.50;;;17.80;99.90;;;;;;5061051;28;20201;-76
2022/07/17 07:51:30;;;;;;;0.47;0.47;;;17.60;99.90;;;;;;5057199;28;20207;-76
2022/07/17 07:54:38;;;;;;;0.70;0.70;;;17.40;99.90;;;;;;5055808;28;20339;-73
2022/07/17 07:57:26;;;;;;;1.42;0.55;;;17.70;99.90;;;;;;5044204;28;20217;-74
2022/07/17 08:00:15;;;;;;;0.60;0.50;;;17.80;99.90;;;;;;5036046;28;20198;-74
2022/07/17 08:03:04;;;;;;;0.40;0.40;;;17.90;99.90;;;;;;5034715;28;20303;-79
2022/07/17 08:05:52;;;;;;;0.50;0.50;;;18.20;99.90;;;;;;5032874;28;20297;-79
2022/07/17 08:08:42;;;;;;;0.40;0.40;;;18.50;99.90;;;;;;5033507;28;20198;-77
2022/07/17 08:11:30;;;;;;;0.40;0.40;;;19.00;99.90;;;;;;5037543;28;20198;-74
2022/07/17 08:14:18;;;;;;;0.40;0.40;;;19.30;99.90;;;;;;5035736;28;20221;-75
2022/07/17 08:17:06;;;;;;;1.13;1.13;;;19.30;99.90;;;;;;5036165;28;20648;-78
2022/07/17 08:19:55;;;;;;;0.40;0.40;;;19.10;99.90;;;;;;5035550;28;20732;-77
2022/07/17 08:22:44;;;;;;;0.50;0.50;;;18.90;99.90;;;;;;5036565;28;20729;-76
2022/07/17 08:25:53;;;;;;;0.50;0.50;;;19.00;99.90;;;;;;5035561;28;20201;-74
2022/07/17 08:28:41;;;;;;;3.03;0.60;;;19.00;99.90;;;;;;5036946;28;20205;-81
2022/07/17 08:31:29;;;;;;;0.40;0.40;;;19.10;99.90;;;;;;5036379;28;20208;-78
2022/07/17 08:34:18;;;;;;;0.40;0.40;;;18.90;99.90;;;;;;5034453;28;20609;-77
2022/07/17 08:37:06;;;;;;;6.07;2.58;;;18.90;99.90;;;;;;5034672;28;20686;-77
2022/07/17 08:39:54;;;;;;;0.40;0.40;;;18.70;99.90;;;;;;5035596;28;20201;-75
2022/07/17 08:42:44;;;;;;;3.40;0.80;;;18.40;99.90;;;;;;5039000;28;20593;-73
2022/07/17 08:45:32;;;;;;;0.70;0.70;;;18.10;99.90;;;;;;5039495;28;20205;-75
2022/07/17 08:48:21;;;;;;;0.40;0.40;;;17.90;99.90;;;;;;5039449;28;20210;-73
2022/07/17 08:51:11;;;;;;;0.40;0.40;;;17.80;99.90;;;;;;5045061;28;20671;-75
2022/07/17 08:54:00;;;;;;;0.40;0.40;;;17.70;99.90;;;;;;5038571;28;20240;-74
2022/07/17 08:56:48;;;;;;;0.55;0.55;;;17.50;99.90;;;;;;5049328;28;20217;-76
2022/07/17 08:59:38;;;;;;;1.38;1.27;;;17.60;99.90;;;;;;5059690;28;20213;-76
2022/07/17 09:02:26;;;;;;;0.40;0.40;;;17.50;99.90;;;;;;5060049;28;20210;-74
2022/07/17 09:05:21;;;;;;;6.00;0.77;;;17.50;99.90;;;;;;5059285;28;20193;-75
2022/07/17 09:08:19;;;;;;;0.40;0.40;;;18.00;99.90;;;;;;5055102;28;20194;-80
2022/07/17 09:11:08;;;;;;;0.40;0.40;;;18.80;99.90;;;;;;5054336;28;20225;-74
2022/07/17 09:13:57;;;;;;;0.50;0.50;;;19.30;99.90;;;;;;5053858;28;20218;-78
2022/07/17 09:16:51;;;;;;;0.50;0.50;;;19.30;99.90;;;;;;5053776;28;20202;-73
2022/07/17 09:19:42;;;;;;;0.40;0.40;;;19.20;99.90;;;;;;5053339;28;20334;-77
2022/07/17 09:22:30;;;;;;;0.40;0.40;;;19.10;99.90;;;;;;5053562;28;20677;-77
2022/07/17 09:25:19;;;;;;;0.57;0.52;;;19.30;99.90;;;;;;5053096;28;20594;-78
2022/07/17 09:28:09;;;;;;;0.60;0.60;;;19.40;99.90;;;;;;5054053;28;20205;-78
2022/07/17 09:30:57;;;;;;;0.50;0.50;;;19.80;99.90;;;;;;5053106;28;20573;-74
2022/07/17 09:33:47;;;;;;;0.40;0.40;;;19.90;99.90;;;;;;5053945;28;20617;-74
2022/07/17 09:36:35;;;;;;;0.40;0.40;;;19.90;99.90;;;;;;5062800;28;20201;-76
2022/07/17 09:39:23;;;;;;;1.77;0.50;;;19.80;99.90;;;;;;5061142;28;20197;-80
2022/07/17 09:42:23;;;;;;;0.40;0.40;;;19.90;99.90;;;;;;5056054;28;20198;-79
2022/07/17 09:45:11;;;;;;;1.33;0.65;;;20.00;99.90;;;;;;5053832;28;20202;-80
2022/07/17 09:48:00;;;;;;;0.50;0.50;;;20.10;99.90;;;;;;5055618;28;20693;-78
2022/07/17 09:50:49;;;;;;;0.40;0.40;;;20.00;99.90;;;;;;5054083;28;20611;-78
2022/07/17 09:53:38;;;;;;;0.40;0.40;;;20.20;99.90;;;;;;5053870;28;20221;-77
2022/07/17 09:56:29;;;;;;;0.40;0.40;;;20.50;99.90;;;;;;5055145;28;20194;-76
2022/07/17 09:59:19;;;;;;;0.50;0.50;;;20.30;99.90;;;;;;5054119;28;20639;-80
2022/07/17 10:02:08;;;;;;;0.50;0.50;;;20.00;99.90;;;;;;5053353;28;20210;-79
2022/07/17 10:04:57;;;;;;;0.50;0.50;;;19.60;99.90;;;;;;5052899;28;20193;-78
2022/07/17 10:07:49;;;;;;;0.70;0.55;;;19.60;99.90;;;;;;5053336;28;20201;-76
2022/07/17 10:10:37;;;;;;;2.67;0.65;;;19.80;99.90;;;;;;5055261;28;20685;-76
2022/07/17 10:13:25;;;;;;;0.43;0.43;;;20.00;99.90;;;;;;5073575;28;20228;-77
2022/07/17 10:16:14;;;;;;;0.73;0.73;;;20.20;99.90;;;;;;5075463;28;20228;-75
2022/07/17 10:19:05;;;;;;;0.45;0.45;;;20.00;99.90;;;;;;5073629;28;20221;-74
2022/07/17 10:21:56;;;;;;;2.45;0.98;;;20.10;99.90;;;;;;5073482;28;20224;-77
2022/07/17 10:24:50;;;;;;;0.40;0.40;;;19.90;99.90;;;;;;5082846;22;20617;-73
2022/07/17 10:27:47;;;;;;;3.13;1.42;;;20.00;99.90;;;;;;5055564;28;20202;-72
2022/07/17 10:30:36;;;;;;;0.40;0.40;;;19.90;99.90;;;;;;5053441;28;20209;-73
2022/07/17 10:33:26;;;;;;;0.95;0.60;;;19.60;99.90;;;;;;5053205;28;20217;-72
2022/07/17 10:36:14;;;;;;;0.82;0.73;;;19.40;99.90;;;;;;5054609;28;20205;-73
2022/07/17 10:39:13;;;;;;;0.50;0.50;;;19.20;99.90;;;;;;5054519;28;20224;-75
2022/07/17 10:42:03;;;;;;;0.50;0.50;;;18.80;99.90;;;;;;5054850;28;20201;-72
2022/07/17 10:44:51;;;;;;;0.50;0.50;;;18.50;99.90;;;;;;5054206;28;20240;-72
2022/07/17 10:47:52;;;;;;;0.40;0.40;;;18.40;99.90;;;;;;5055568;28;20198;-73
2022/07/17 10:50:42;;;;;;;2.63;0.90;;;18.40;99.90;;;;;;5053879;28;20204;-73
2022/07/17 10:53:31;;;;;;;0.60;0.60;;;18.60;99.90;;;;;;5054463;28;20601;-73
2022/07/17 10:56:20;;;;;;;0.50;0.50;;;18.80;99.90;;;;;;5053900;28;20204;-73
2022/07/17 10:59:10;;;;;;;0.40;0.40;;;18.90;99.90;;;;;;5053324;28;20304;-72
2022/07/17 11:01:59;;;;;;;0.40;0.40;;;19.20;99.90;;;;;;5053724;28;20213;-72
2022/07/17 11:04:48;;;;;;;0.40;0.40;;;19.50;99.90;;;;;;5053606;28;20649;-72
2022/07/17 11:07:36;;;;;;;0.77;0.50;;;19.60;99.90;;;;;;5054023;28;20197;-73
2022/07/17 11:10:27;;;;;;;1.10;1.00;;;19.60;99.90;;;;;;5053961;28;20616;-72
2022/07/17 11:13:16;;;;;;;0.50;0.50;;;19.40;99.90;;;;;;5053410;28;20217;-72
2022/07/17 11:16:06;;;;;;;1.13;0.60;;;19.30;99.90;;;;;;5053876;28;20260;-73
2022/07/17 11:18:55;;;;;;;0.50;0.50;;;19.20;99.90;;;;;;5054213;28;20217;-72
2022/07/17 11:21:48;;;;;;;0.40;0.40;;;19.20;99.90;;;;;;5034815;28;20202;-73
2022/07/17 11:24:37;;;;;;;0.50;0.50;;;19.40;99.90;;;;;;5035163;28;20234;-74
2022/07/17 11:27:27;;;;;;;3.15;1.02;;;19.50;99.90;;;;;;5033860;28;20208;-73
2022/07/17 11:30:15;;;;;;;0.63;0.63;;;19.50;99.90;;;;;;5034179;28;20683;-75
2022/07/17 11:33:15;;;;;;;0.57;0.50;;;19.60;99.90;;;;;;5034632;28;20213;-73
2022/07/17 11:36:04;;;;;;;0.40;0.40;;;19.90;99.90;;;;;;5035341;28;20208;-72
2022/07/17 11:38:53;;;;;;;0.43;0.43;;;20.10;99.40;;;;;;5035633;28;20221;-73
2022/07/17 11:41:43;;;;;;;0.40;0.40;;;20.10;98.80;;;;;;5034129;28;20274;-72
2022/07/17 11:44:31;;;;;;;0.50;0.50;;;19.90;98.80;;;;;;5033943;28;20217;-72
2022/07/17 11:47:22;;;;;;;0.40;0.40;;;19.70;99.00;;;;;;5033351;28;20205;-73
2022/07/17 11:50:14;;;;;;;0.40;0.40;;;19.80;99.50;;;;;;5033267;28;20575;-74
2022/07/17 11:53:04;;;;;;;0.40;0.40;;;19.80;98.80;;;;;;5033287;28;20202;-73
2022/07/17 11:55:52;;;;;;;0.77;0.70;;;19.90;99.40;;;;;;5034523;28;20578;-73
2022/07/17 11:58:46;;;;;;;0.50;0.50;;;19.90;98.40;;;;;;5034500;28;20218;-72
2022/07/17 12:01:42;;;;;;;0.40;0.40;;;19.90;98.50;;;;;;5033126;28;20264;-73
2022/07/17 12:04:30;;;;;;;0.52;0.52;;;19.90;98.00;;;;;;5034621;28;20225;-73
2022/07/17 12:07:21;;;;;;;0.40;0.40;;;20.00;97.50;;;;;;5034904;28;20252;-72
2022/07/17 12:10:16;;;;;;;0.50;0.50;;;20.10;96.80;;;;;;5033756;28;20281;-73
2022/07/17 12:13:07;;;;;;;1.05;0.60;;;20.00;96.80;;;;;;5034315;28;20205;-73
2022/07/17 12:15:57;;;;;;;0.40;0.40;;;20.00;96.70;;;;;;5033930;28;20201;-72
2022/07/17 12:19:00;;;;;;;1.10;1.02;;;20.00;97.10;;;;;;5034154;28;20293;-72
2022/07/17 12:21:55;;;;;;;0.40;0.40;;;20.20;97.10;;;;;;5033845;28;20260;-72
2022/07/17 12:24:46;;;;;;;0.40;0.40;;;20.30;97.60;;;;;;5034385;28;20711;-72
2022/07/17 12:27:34;;;;;;;0.50;0.50;;;20.30;97.70;;;;;;5033170;28;20202;-72
2022/07/17 12:30:23;;;;;;;0.57;0.57;;;20.50;97.60;;;;;;5033445;28;20225;-73
2022/07/17 12:33:11;;;;;;;0.40;0.40;;;20.60;96.90;;;;;;5033011;28;20217;-73
2022/07/17 12:35:59;;;;;;;0.40;0.40;;;20.60;96.30;;;;;;5033715;28;20202;-73
2022/07/17 12:38:48;;;;;;;0.40;0.40;;;20.70;96.20;;;;;;5034159;28;20217;-72
2022/07/17 12:41:38;;;;;;;0.40;0.40;;;20.70;95.50;;;;;;5033838;28;20206;-73
2022/07/17 12:44:26;;;;;;;2.20;1.33;;;21.00;95.70;;;;;;5033526;28;20232;-72
2022/07/17 12:47:15;;;;;;;0.40;0.40;;;21.50;95.20;;;;;;5033811;28;20248;-72
2022/07/17 12:50:04;;;;;;;0.40;0.40;;;22.40;94.00;;;;;;5031435;28;20630;-74
2022/07/17 12:52:52;;;;;;;0.40;0.40;;;24.40;92.20;;;;;;5031385;28;20694;-71
2022/07/17 12:55:48;;;;;;;0.40;0.40;;;26.20;87.60;;;;;;5039604;28;20202;-74
2022/07/17 12:58:38;;;;;;;3.63;0.80;;;28.40;81.40;;;;;;5056219;28;20197;-75
2022/07/17 13:01:27;;;;;;;0.55;0.55;;;30.40;71.10;;;;;;5053748;28;20283;-72
2022/07/17 13:04:16;;;;;;;0.40;0.40;;;30.90;65.00;;;;;;5054439;28;20229;-71
2022/07/17 13:07:04;;;;;;;0.50;0.50;;;32.40;61.30;;;;;;5054250;28;20201;-73
2022/07/17 13:09:52;;;;;;;0.40;0.40;;;33.10;57.90;;;;;;5053801;28;20206;-74
2022/07/17 13:12:40;;;;;;;0.40;0.40;;;33.40;55.50;;;;;;5055018;28;20280;-73
2022/07/17 13:15:30;;;;;;;0.50;0.50;;;33.50;54.80;;;;;;5054158;28;20201;-73
2022/07/17 13:18:18;;;;;;;1.50;1.05;;;34.20;52.60;;;;;;5054682;28;20197;-74
2022/07/17 13:21:07;;;;;;;0.40;0.40;;;34.60;51.80;;;;;;5054044;28;20212;-74
2022/07/17 13:23:55;;;;;;;0.40;0.40;;;35.00;51.70;;;;;;5054927;28;20225;-73
2022/07/17 13:26:43;;;;;;;0.40;0.40;;;34.90;50.30;;;;;;5053269;28;20553;-73
2022/07/17 13:29:32;;;;;;;0.40;0.40;;;35.10;50.20;;;;;;5053755;28;20382;-73
2022/07/17 13:32:21;;;;;;;0.40;0.40;;;36.10;49.50;;;;;;5054922;28;20205;-73
2022/07/17 13:35:10;;;;;;;0.40;0.40;;;36.60;48.60;;;;;;5053993;28;20263;-73
2022/07/17 13:38:01;;;;;;;0.40;0.40;;;36.60;47.30;;;;;;5054189;28;20224;-73
2022/07/17 13:40:50;;;;;;;0.40;0.40;;;37.40;46.40;;;;;;5053441;28;20221;-73
2022/07/17 13:43:39;;;;;;;0.40;0.40;;;37.20;45.20;;;;;;5053180;28;20217;-73
2022/07/17 13:46:28;;;;;;;0.60;0.43;;;37.40;45.00;;;;;;5054211;28;20221;-73
2022/07/17 13:49:18;;;;;;;0.40;0.40;;;38.10;44.30;;;;;;5053512;28;20276;-73
2022/07/17 13:52:06;;;;;;;1.20;1.00;;;38.40;44.00;;;;;;5053964;28;20205;-73
2022/07/17 13:54:54;;;;;;;0.40;0.40;;;38.50;43.20;;;;;;5052966;28;20221;-73
2022/07/17 13:58:02;;;;;;;0.40;0.40;;;38.20;42.80;;;;;;5053641;28;20205;-73
2022/07/17 14:00:51;;;;;;;0.40;0.40;;;38.50;42.50;;;;;;5052659;28;20225;-73
2022/07/17 14:03:39;;;;;;;0.45;0.45;;;38.50;42.40;;;;;;5053407;28;20214;-73
2022/07/17 14:06:29;;;;;;;4.85;4.57;;;39.20;41.30;;;;;;5052890;28;20197;-73
2022/07/17 14:09:18;;;;;;;0.40;0.40;;;39.20;40.40;;;;;;5052503;28;20580;-73
2022/07/17 14:12:07;;;;;;;0.40;0.40;;;38.90;40.60;;;;;;5052960;28;20595;-72
2022/07/17 14:14:55;;;;;;;0.40;0.40;;;39.10;40.70;;;;;;5052849;28;20723;-73
2022/07/17 14:17:43;;;;;;;0.40;0.40;;;39.20;40.00;;;;;;5053086;28;20201;-74
2022/07/17 14:20:32;;;;;;;0.40;0.40;;;39.90;39.90;;;;;;5051640;28;20224;-75
2022/07/17 14:23:21;;;;;;;0.40;0.40;;;40.40;38.80;;;;;;5052992;28;20232;-74
2022/07/17 14:26:09;;;;;;;1.02;0.50;;;40.60;38.30;;;;;;5052670;28;20664;-74
2022/07/17 14:28:58;;;;;;;0.43;0.43;;;38.60;38.90;;;;;;5054494;28;20196;-74
2022/07/17 14:31:46;;;;;;;0.60;0.60;;;37.80;40.40;;;;;;5052922;28;20208;-75
2022/07/17 14:34:35;;;;;;;0.40;0.40;;;37.90;40.20;;;;;;5053196;28;20705;-75
2022/07/17 14:37:23;;;;;;;0.40;0.40;;;38.90;40.20;;;;;;5051661;28;20206;-74
2022/07/17 14:40:14;;;;;;;0.60;0.60;;;40.50;38.50;;;;;;5053568;28;20217;-75
2022/07/17 14:43:02;;;;;;;0.50;0.50;;;40.10;38.60;;;;;;5053381;28;20193;-74